Time;durP1;ratioP1;P1;durP2;ratioP2;P2;SDS_P1;SDS_P2;PMS_P1;PMS_P2;Temp;Humidity;BMP_temperature;BMP_pressure;BME280_temperature;BME280_humidity;BME280_pressure;Samples;Min_cycle;Max_cycle;Signal;HPM_P1;HPM_P2
2022/07/11 00:02:06;;;;;;;;;5.67;5.00;;;;;23.63;50.93;100817.62;110242;1264;22019;-63
2022/07/11 00:04:33;;;;;;;;;5.00;5.00;;;;;23.65;50.80;100818.65;110216;1264;18546;-62
2022/07/11 00:07:01;;;;;;;;;5.00;5.00;;;;;23.65;50.96;100819.50;110164;1264;18865;-62
2022/07/11 00:09:28;;;;;;;;;5.00;5.00;;;;;23.67;50.77;100818.26;110236;1265;19631;-61
2022/07/11 00:11:55;;;;;;;;;6.00;6.00;;;;;23.68;50.88;100818.86;110161;1265;22236;-64
2022/07/11 00:14:22;;;;;;;;;5.00;5.00;;;;;23.68;50.79;100815.02;110278;1264;19782;-63
2022/07/11 00:16:50;;;;;;;;;5.00;5.00;;;;;23.68;50.90;100811.95;110220;1264;19538;-63
2022/07/11 00:19:17;;;;;;;;;5.00;4.33;;;;;23.67;50.85;100814.39;110225;1264;18556;-63
2022/07/11 00:21:44;;;;;;;;;5.00;4.33;;;;;23.67;50.80;100807.65;110192;1264;18730;-65
2022/07/11 00:24:11;;;;;;;;;8.00;6.00;;;;;23.66;50.83;100807.39;110166;1265;24283;-64
2022/07/11 00:26:39;;;;;;;;;5.00;5.00;;;;;23.66;50.87;100804.18;110264;1265;20668;-64
2022/07/11 00:29:06;;;;;;;;;3.00;3.00;;;;;23.66;50.72;100803.96;110214;1264;18801;-64
2022/07/11 00:31:33;;;;;;;;;3.00;3.00;;;;;23.65;50.93;100806.06;110208;1264;19636;-63
2022/07/11 00:34:00;;;;;;;;;5.00;4.33;;;;;23.66;50.60;100808.94;110242;1264;20187;-64
2022/07/11 00:36:28;;;;;;;;;3.00;3.00;;;;;23.66;50.70;100811.09;110211;1265;18847;-65
2022/07/11 00:38:55;;;;;;;;;3.00;3.00;;;;;23.66;50.78;100810.89;110225;1265;19643;-68
2022/07/11 00:41:22;;;;;;;;;4.33;4.33;;;;;23.65;50.76;100815.70;110236;1268;18373;-64
2022/07/11 00:43:49;;;;;;;;;3.00;3.00;;;;;23.65;50.80;100817.59;110209;1264;22411;-66
2022/07/11 00:46:17;;;;;;;;;5.67;5.67;;;;;23.65;50.65;100833.29;110212;1264;19920;-64
2022/07/11 00:48:44;;;;;;;;;3.00;3.00;;;;;23.64;50.79;100849.08;110200;1264;18578;-64
2022/07/11 00:51:11;;;;;;;;;5.00;5.00;;;;;23.62;50.72;100848.35;110214;1265;18901;-65
2022/07/11 00:53:39;;;;;;;;;5.00;5.00;;;;;23.61;50.76;100848.31;110193;1264;19934;-65
2022/07/11 00:56:06;;;;;;;;;5.00;5.00;;;;;23.60;50.77;100849.00;110157;1265;18310;-60
2022/07/11 00:58:33;;;;;;;;;3.00;3.00;;;;;23.60;50.73;100846.44;110158;1264;18757;-62
2022/07/11 01:01:00;;;;;;;;;6.00;6.00;;;;;23.60;50.80;100844.77;110198;1264;20990;-62
2022/07/11 01:03:27;;;;;;;;;3.67;3.67;;;;;23.62;50.78;100843.19;110164;1265;18334;-64
2022/07/11 01:05:55;;;;;;;;;4.00;4.00;;;;;23.63;50.47;100836.85;110305;1264;18866;-68
2022/07/11 01:08:22;;;;;;;;;4.33;3.00;;;;;23.62;50.48;100835.80;110225;1264;19623;-61
2022/07/11 01:10:49;;;;;;;;;3.67;3.67;;;;;23.62;50.45;100840.13;110107;1265;20082;-66
2022/07/11 01:13:17;;;;;;;;;6.00;6.00;;;;;23.63;50.51;100834.58;110147;1264;19845;-61
2022/07/11 01:15:44;;;;;;;;;3.00;3.00;;;;;23.64;50.36;100829.79;110214;1265;19605;-62
2022/07/11 01:18:11;;;;;;;;;3.00;3.00;;;;;23.65;50.27;100828.52;110170;1265;22258;-65
2022/07/11 01:20:39;;;;;;;;;5.00;5.00;;;;;23.66;50.28;100830.63;110243;1265;18791;-63
2022/07/11 01:23:06;;;;;;;;;5.00;5.00;;;;;23.65;50.27;100832.16;110228;1265;19499;-65
2022/07/11 01:25:34;;;;;;;;;3.00;3.00;;;;;23.65;50.29;100832.90;110197;1265;18616;-63
2022/07/11 01:28:02;;;;;;;;;3.00;3.00;;;;;23.64;50.40;100829.70;110186;1265;22246;-65
2022/07/11 01:30:29;;;;;;;;;5.00;5.00;;;;;23.64;50.39;100836.23;110203;1265;19417;-65
2022/07/11 01:32:56;;;;;;;;;6.00;6.00;;;;;23.65;50.31;100830.89;110205;1265;22909;-66
2022/07/11 01:35:24;;;;;;;;;5.00;5.00;;;;;23.65;50.30;100829.96;110232;1265;18821;-65
2022/07/11 01:37:51;;;;;;;;;5.00;4.33;;;;;23.64;50.12;100826.84;110221;1265;20008;-64
2022/07/11 01:40:18;;;;;;;;;5.00;5.00;;;;;23.63;50.25;100827.60;110211;1265;18650;-65
2022/07/11 01:42:46;;;;;;;;;5.00;5.00;;;;;23.63;50.21;100825.45;110198;1264;19413;-65
2022/07/11 01:45:13;;;;;;;;;4.33;4.33;;;;;23.62;50.23;100817.56;110231;1264;19652;-63
2022/07/11 01:47:40;;;;;;;;;5.00;3.00;;;;;23.62;50.26;100816.00;110260;1265;18445;-63
2022/07/11 01:50:08;;;;;;;;;6.00;5.00;;;;;23.61;50.05;100810.21;110205;1264;18919;-64
2022/07/11 01:52:35;;;;;;;;;5.50;5.00;;;;;23.61;50.13;100806.77;110205;1264;19508;-65
2022/07/11 01:55:02;;;;;;;;;6.00;5.00;;;;;23.61;50.23;100805.48;110200;1265;22124;-63
2022/07/11 01:57:29;;;;;;;;;5.00;5.00;;;;;23.62;50.22;100809.39;110170;1264;18731;-64
2022/07/11 01:59:57;;;;;;;;;4.33;4.33;;;;;23.62;50.15;100808.14;110252;1264;19614;-69
2022/07/11 02:02:24;;;;;;;;;5.00;5.00;;;;;23.60;50.03;100805.91;110239;1265;18693;-64
2022/07/11 02:04:51;;;;;;;;;5.00;5.00;;;;;23.61;50.18;100801.70;110225;1264;21054;-65
2022/07/11 02:08:11;;;;;;;;;5.00;5.00;;;;;23.60;50.05;100800.30;110209;1265;19544;-62
2022/07/11 02:10:06;;;;;;;;;4.33;4.33;;;;;23.60;50.03;100795.95;110208;1264;18465;-65
2022/07/11 02:12:33;;;;;;;;;5.00;5.00;;;;;23.60;49.99;100789.55;110193;1265;18756;-65
2022/07/11 02:15:00;;;;;;;;;6.00;5.33;;;;;23.60;50.05;100790.51;110200;1265;19471;-64
2022/07/11 02:17:28;;;;;;;;;5.00;5.00;;;;;23.60;49.99;100786.48;110288;1264;18805;-64
2022/07/11 02:19:55;;;;;;;;;5.00;5.00;;;;;23.60;49.92;100789.31;110228;1265;18784;-64
2022/07/11 02:22:22;;;;;;;;;3.00;3.00;;;;;23.61;49.91;100786.30;110207;1265;20408;-66
2022/07/11 02:24:49;;;;;;;;;5.00;5.00;;;;;23.61;49.87;100790.54;110268;1264;18516;-66
2022/07/11 02:27:17;;;;;;;;;5.00;5.00;;;;;23.61;49.94;100783.19;110184;1265;18824;-64
2022/07/11 02:29:44;;;;;;;;;5.00;5.00;;;;;23.61;49.88;100784.84;110216;1265;19656;-64
2022/07/11 02:32:12;;;;;;;;;3.67;3.67;;;;;23.62;49.86;100787.16;110210;1264;18620;-65
2022/07/11 02:34:39;;;;;;;;;5.00;5.00;;;;;23.62;49.84;100795.04;110191;1265;18667;-62
2022/07/11 02:37:06;;;;;;;;;3.00;3.00;;;;;23.62;49.94;100800.26;110212;1265;19618;-64
2022/07/11 02:39:34;;;;;;;;;3.00;3.00;;;;;23.63;49.86;100804.70;110167;1265;18349;-65
2022/07/11 02:42:01;;;;;;;;;5.00;5.00;;;;;23.63;49.91;100806.16;110133;1264;22858;-68
2022/07/11 02:44:28;;;;;;;;;3.00;3.00;;;;;23.64;49.88;100812.23;110233;1265;19355;-65
2022/07/11 02:46:56;;;;;;;;;4.33;3.00;;;;;23.64;49.82;100818.98;110236;1265;18466;-64
2022/07/11 02:49:23;;;;;;;;;4.33;4.33;;;;;23.63;49.81;100820.15;110233;1265;19031;-63
2022/07/11 02:51:50;;;;;;;;;5.00;5.00;;;;;23.64;49.86;100820.27;110246;1265;19835;-65
2022/07/11 02:54:18;;;;;;;;;6.00;6.00;;;;;23.63;49.66;100820.73;110177;1265;18481;-65
2022/07/11 02:56:45;;;;;;;;;5.00;3.00;;;;;23.62;49.81;100821.57;110242;1264;19213;-65
2022/07/11 02:59:13;;;;;;;;;3.00;3.00;;;;;23.63;49.87;100824.05;110213;1264;19556;-65
2022/07/11 03:01:41;;;;;;;;;4.33;4.33;;;;;23.64;49.76;100828.14;110218;1264;18442;-63
2022/07/11 03:04:08;;;;;;;;;3.00;3.00;;;;;23.63;49.64;100831.13;110298;1264;22695;-64
2022/07/11 03:06:35;;;;;;;;;3.00;3.00;;;;;23.63;49.65;100832.56;110205;1265;19628;-65
2022/07/11 03:09:02;;;;;;;;;5.00;3.67;;;;;23.63;49.69;100834.96;110220;1265;21667;-65
2022/07/11 03:11:30;;;;;;;;;3.00;3.00;;;;;23.63;49.65;100835.84;110217;1264;19951;-65
2022/07/11 03:13:57;;;;;;;;;4.33;3.00;;;;;23.63;49.62;100839.47;110232;1265;19503;-64
2022/07/11 03:16:25;;;;;;;;;5.00;3.00;;;;;23.63;49.67;100842.45;110174;1265;18528;-64
2022/07/11 03:18:52;;;;;;;;;3.00;3.00;;;;;23.63;49.64;100842.87;110214;1265;19972;-65
2022/07/11 03:21:19;;;;;;;;;3.00;3.00;;;;;23.63;49.64;100841.36;110219;1265;19565;-64
2022/07/11 03:23:46;;;;;;;;;4.00;3.00;;;;;23.63;49.52;100843.92;110222;1265;22884;-65
2022/07/11 03:26:14;;;;;;;;;3.00;2.00;;;;;23.62;49.67;100839.52;110213;1264;22138;-64
2022/07/11 03:28:41;;;;;;;;;3.00;3.00;;;;;23.62;49.58;100832.96;110202;1264;20481;-65
2022/07/11 03:31:08;;;;;;;;;3.00;3.00;;;;;23.61;49.53;100825.84;110207;1265;18731;-64
2022/07/11 03:33:35;;;;;;;;;3.00;3.00;;;;;23.61;49.46;100816.61;110188;1265;18868;-64
2022/07/11 03:36:02;;;;;;;;;3.00;3.00;;;;;23.61;49.54;100808.02;110269;1264;19493;-68
2022/07/11 03:38:30;;;;;;;;;3.00;3.00;;;;;23.61;49.64;100810.96;110212;1265;18473;-63
2022/07/11 03:40:57;;;;;;;;;4.33;3.00;;;;;23.61;49.55;100809.45;110216;1264;18800;-62
2022/07/11 03:43:24;;;;;;;;;3.00;3.00;;;;;23.62;49.61;100809.77;110246;1264;22736;-64
2022/07/11 03:45:51;;;;;;;;;3.00;3.00;;;;;23.62;49.44;100803.59;110199;1265;18506;-62
2022/07/11 03:48:19;;;;;;;;;3.00;3.00;;;;;23.61;49.62;100804.88;110262;1264;20364;-63
2022/07/11 03:50:46;;;;;;;;;4.33;4.33;;;;;23.62;49.38;100805.52;110260;1265;19595;-64
2022/07/11 03:53:14;;;;;;;;;2.00;2.00;;;;;23.62;49.40;100804.48;110163;1265;18490;-64
2022/07/11 03:55:41;;;;;;;;;3.00;3.00;;;;;23.62;49.42;100805.20;110194;1265;18788;-63
2022/07/11 03:58:08;;;;;;;;;3.00;3.00;;;;;23.62;49.41;100804.02;110197;1265;20317;-63
2022/07/11 04:00:35;;;;;;;;;3.00;3.00;;;;;23.62;49.28;100804.56;110184;1264;18845;-64
2022/07/11 04:03:03;;;;;;;;;3.00;3.00;;;;;23.63;49.38;100800.15;110214;1265;20196;-67
2022/07/11 04:05:30;;;;;;;;;3.00;3.00;;;;;23.62;49.43;100800.95;110230;1264;20610;-65
2022/07/11 04:07:58;;;;;;;;;3.00;3.00;;;;;23.63;49.44;100798.29;110231;1264;18455;-61
2022/07/11 04:10:25;;;;;;;;;3.00;3.00;;;;;23.63;49.47;100797.91;110213;1265;18925;-65
2022/07/11 04:12:52;;;;;;;;;4.00;4.00;;;;;23.63;49.31;100795.34;110227;1265;20958;-63
2022/07/11 04:15:19;;;;;;;;;5.00;3.00;;;;;23.63;49.33;100796.27;110176;1265;18882;-65
2022/07/11 04:17:47;;;;;;;;;3.00;3.00;;;;;23.63;49.43;100794.63;110240;1264;18894;-66
2022/07/11 04:20:15;;;;;;;;;3.00;3.00;;;;;23.63;49.29;100791.85;110250;1264;19808;-64
2022/07/11 04:22:42;;;;;;;;;5.00;3.00;;;;;23.64;49.31;100793.08;110183;1264;18628;-64
2022/07/11 04:25:09;;;;;;;;;5.00;5.00;;;;;23.64;49.22;100794.17;110203;1265;20085;-63
2022/07/11 04:27:36;;;;;;;;;6.00;4.33;;;;;23.63;49.28;100787.72;110169;1265;22232;-64
2022/07/11 04:30:04;;;;;;;;;3.00;3.00;;;;;23.63;49.30;100782.29;110114;1264;20506;-64
2022/07/11 04:32:31;;;;;;;;;2.00;2.00;;;;;23.63;49.29;100779.23;110191;1266;19072;-65
2022/07/11 04:34:58;;;;;;;;;3.00;3.00;;;;;23.62;49.26;100778.75;110206;1264;19451;-64
2022/07/11 04:37:26;;;;;;;;;5.00;5.00;;;;;23.62;49.29;100784.19;110175;1264;22210;-64
2022/07/11 04:39:53;;;;;;;;;3.00;3.00;;;;;23.63;49.37;100793.41;110226;1265;18910;-64
2022/07/11 04:42:20;;;;;;;;;3.00;3.00;;;;;23.63;49.22;100795.02;110183;1264;22830;-62
2022/07/11 04:44:48;;;;;;;;;2.00;2.00;;;;;23.63;49.25;100793.58;110231;1265;18437;-65
2022/07/11 04:47:15;;;;;;;;;2.00;2.00;;;;;23.63;49.34;100791.77;110250;1264;18736;-64
2022/07/11 04:49:46;;;;;;;;;2.67;2.00;;;;;23.63;49.45;100791.85;110257;1264;19867;-63
2022/07/11 04:52:13;;;;;;;;;5.00;3.00;;;;;23.64;49.34;100791.30;110233;1264;18484;-63
2022/07/11 04:54:41;;;;;;;;;2.00;2.00;;;;;23.63;49.42;100803.05;110269;1264;18725;-65
2022/07/11 04:57:08;;;;;;;;;3.00;3.00;;;;;23.64;49.29;100811.89;110205;1265;19581;-63
2022/07/11 04:59:36;;;;;;;;;3.00;3.00;;;;;23.64;49.31;100816.40;110232;1264;18971;-65
2022/07/11 05:02:03;;;;;;;;;3.00;3.00;;;;;23.61;49.26;100820.40;110226;1265;18855;-62
2022/07/11 05:04:30;;;;;;;;;3.00;3.00;;;;;23.58;49.18;100819.20;110220;1265;19688;-63
2022/07/11 05:06:58;;;;;;;;;5.00;5.00;;;;;23.53;49.11;100817.47;110032;1264;18680;-66
2022/07/11 05:09:25;;;;;;;;;3.67;3.00;;;;;23.49;49.36;100812.13;110264;1263;18718;-65
2022/07/11 05:11:52;;;;;;;;;5.00;3.67;;;;;23.46;49.65;100817.35;110265;1264;19479;-64
2022/07/11 05:14:19;;;;;;;;;3.67;3.67;;;;;23.45;49.36;100820.79;110157;1264;18662;-64
2022/07/11 05:16:47;;;;;;;;;7.00;6.00;;;;;23.31;48.84;100826.81;110194;1265;21064;-62
2022/07/11 05:19:14;;;;;;;;;6.00;6.00;;;;;23.17;49.30;100824.80;110188;1265;21668;-65
2022/07/11 05:21:41;;;;;;;;;2.67;2.67;;;;;23.24;49.83;100825.30;110235;1264;18471;-66
2022/07/11 05:24:09;;;;;;;;;5.33;5.33;;;;;23.31;49.90;100828.96;110181;1264;18866;-63
2022/07/11 05:26:37;;;;;;;;;5.00;5.00;;;;;23.38;49.82;100832.70;110274;1265;19617;-64
2022/07/11 05:29:04;;;;;;;;;6.33;6.00;;;;;23.42;49.72;100834.69;110258;1265;22731;-64
2022/07/11 05:31:33;;;;;;;;;5.67;5.00;;;;;23.50;50.12;100833.93;110226;1264;18792;-64
2022/07/11 05:34:00;;;;;;;;;7.67;7.33;;;;;23.57;49.90;100836.63;110248;1264;22980;-64
2022/07/11 05:36:27;;;;;;;;;10.00;7.67;;;;;23.63;50.16;100838.61;110238;1264;22609;-63
2022/07/11 05:38:54;;;;;;;;;7.67;7.67;;;;;23.74;50.35;100845.14;110286;1264;18707;-64
2022/07/11 05:41:22;;;;;;;;;8.00;8.00;;;;;23.81;50.32;100848.13;110211;1265;20591;-64
2022/07/11 05:43:49;;;;;;;;;11.33;11.00;;;;;23.86;50.41;100843.23;110274;1264;18948;-64
2022/07/11 05:46:16;;;;;;;;;10.00;10.00;;;;;23.88;50.63;100846.92;110260;1264;18906;-65
2022/07/11 05:48:44;;;;;;;;;8.00;8.00;;;;;23.89;50.37;100850.81;110209;1265;19517;-63
2022/07/11 05:51:13;;;;;;;;;11.33;11.00;;;;;23.89;50.54;100850.14;110161;1265;20636;-65
2022/07/11 05:53:41;;;;;;;;;10.67;10.00;;;;;23.84;50.29;100850.63;110132;1264;18765;-64
2022/07/11 05:56:08;;;;;;;;;9.33;8.00;;;;;23.75;50.31;100853.70;110129;1264;20884;-62
2022/07/11 05:58:35;;;;;;;;;10.00;10.00;;;;;23.72;50.37;100854.27;110160;1264;18816;-61
2022/07/11 06:01:03;;;;;;;;;7.00;7.00;;;;;23.67;50.29;100847.60;110165;1264;18816;-63
2022/07/11 06:03:30;;;;;;;;;9.33;7.00;;;;;23.64;50.43;100851.60;110233;1264;19550;-63
2022/07/11 06:05:57;;;;;;;;;7.00;7.00;;;;;23.60;50.22;100856.87;110276;1264;22741;-66
2022/07/11 06:08:43;;;;;;;;;6.00;6.00;;;;;23.57;50.25;100854.52;110215;1264;18825;-64
2022/07/11 06:11:11;;;;;;;;;6.00;6.00;;;;;23.57;49.94;100854.65;110184;1265;19754;-66
2022/07/11 06:13:38;;;;;;;;;7.67;7.00;;;;;23.64;50.26;100853.25;110225;1264;18414;-64
2022/07/11 06:16:06;;;;;;;;;7.33;7.00;;;;;23.71;50.09;100855.13;110226;1265;18972;-65
2022/07/11 06:18:34;;;;;;;;;7.00;6.00;;;;;23.73;50.13;100860.77;110163;1265;19482;-64
2022/07/11 06:21:01;;;;;;;;;7.00;6.67;;;;;23.71;49.90;100859.71;110203;1265;18483;-64
2022/07/11 06:23:29;;;;;;;;;5.00;5.00;;;;;23.70;49.79;100863.61;110063;1264;19436;-64
2022/07/11 06:25:56;;;;;;;;;6.00;6.00;;;;;23.69;49.96;100872.95;110161;1265;19971;-64
2022/07/11 06:28:23;;;;;;;;;6.00;6.00;;;;;23.65;49.94;100877.25;109891;1265;22692;-65
2022/07/11 06:30:51;;;;;;;;;7.00;6.00;;;;;23.65;49.72;100872.52;110052;1265;18905;-65
2022/07/11 06:33:18;;;;;;;;;5.00;5.00;;;;;23.54;49.59;100873.30;110198;1265;19726;-65
2022/07/11 06:35:45;;;;;;;;;6.33;6.33;;;;;23.38;49.73;100879.11;110284;1264;21891;-61
2022/07/11 06:38:12;;;;;;;;;6.00;6.00;;;;;23.25;49.91;100882.02;110213;1264;18776;-60
2022/07/11 06:40:41;;;;;;;;;6.00;6.00;;;;;23.23;50.08;100886.36;110193;1265;19619;-64
2022/07/11 06:43:09;;;;;;;;;6.33;6.33;;;;;23.23;50.17;100889.64;110162;1264;18405;-64
2022/07/11 06:45:36;;;;;;;;;6.50;6.50;;;;;23.19;50.34;100890.83;110179;1264;18890;-65
2022/07/11 06:48:04;;;;;;;;;6.00;5.50;;;;;23.13;50.43;100889.52;110218;1265;22780;-63
2022/07/11 06:50:31;;;;;;;;;5.00;5.00;;;;;23.11;50.42;100893.98;110247;1265;18466;-65
2022/07/11 06:52:58;;;;;;;;;5.00;5.00;;;;;23.08;50.37;100897.05;110217;1264;18788;-67
2022/07/11 06:55:25;;;;;;;;;5.00;5.00;;;;;23.03;50.45;100897.33;110233;1264;19543;-65
2022/07/11 06:57:53;;;;;;;;;5.00;5.00;;;;;23.01;50.47;100897.95;110122;1264;22986;-65
2022/07/11 07:00:20;;;;;;;;;7.33;7.00;;;;;22.97;50.35;100893.77;110229;1264;20367;-64
2022/07/11 07:02:47;;;;;;;;;8.00;8.00;;;;;22.95;50.47;100898.46;110208;1264;20409;-65
2022/07/11 07:05:14;;;;;;;;;7.00;7.00;;;;;22.76;50.76;100897.11;110206;1264;18435;-63
2022/07/11 07:07:42;;;;;;;;;7.00;7.00;;;;;22.41;51.67;100899.76;110072;1264;20013;-65
2022/07/11 07:10:09;;;;;;;;;10.33;7.00;;;;;22.26;52.18;100901.20;110175;1264;19707;-65
2022/07/11 07:12:36;;;;;;;;;5.33;5.33;;;;;22.12;52.46;100901.79;110190;1265;18629;-64
2022/07/11 07:15:04;;;;;;;;;9.67;9.00;;;;;22.02;53.18;100894.67;110224;1264;18750;-63
2022/07/11 07:17:31;;;;;;;;;6.00;6.00;;;;;22.06;53.20;100894.78;110191;1265;22379;-63
2022/07/11 07:19:59;;;;;;;;;6.00;6.00;;;;;22.09;53.33;100900.09;110176;1264;19030;-64
2022/07/11 07:22:26;;;;;;;;;10.33;10.33;;;;;22.07;53.43;100901.90;110280;1264;19342;-63
2022/07/11 07:24:53;;;;;;;;;10.33;10.33;;;;;22.02;53.35;100902.42;110190;1264;19686;-64
2022/07/11 07:27:21;;;;;;;;;11.00;10.33;;;;;22.00;53.29;100896.55;110160;1265;20042;-64
2022/07/11 07:29:48;;;;;;;;;12.00;11.00;;;;;22.06;53.48;100904.60;110222;1265;20340;-65
2022/07/11 07:32:15;;;;;;;;;11.00;10.00;;;;;22.12;53.53;100901.34;110162;1265;19521;-64
2022/07/11 07:34:43;;;;;;;;;14.00;12.00;;;;;22.14;53.41;100900.95;110190;1265;18670;-65
2022/07/11 07:37:10;;;;;;;;;10.00;10.00;;;;;22.04;53.88;100899.19;110122;1264;18908;-65
2022/07/11 07:39:37;;;;;;;;;9.33;7.00;;;;;22.15;53.84;100899.29;110190;1264;22092;-64
2022/07/11 07:42:04;;;;;;;;;7.67;6.33;;;;;22.20;53.97;100895.02;109300;1264;1026077;-67
2022/07/11 07:44:31;;;;;;;;;6.00;6.00;;;;;22.28;53.78;100896.98;110144;1265;18800;-65
2022/07/11 07:46:59;;;;;;;;;7.00;6.67;;;;;22.26;53.88;100900.86;110175;1264;22104;-65
2022/07/11 07:49:27;;;;;;;;;5.00;5.00;;;;;22.16;54.02;100900.40;110094;1265;18588;-64
2022/07/11 07:51:54;;;;;;;;;5.00;5.00;;;;;22.14;54.31;100900.45;110205;1265;19663;-64
2022/07/11 07:54:21;;;;;;;;;6.00;6.00;;;;;22.17;54.17;100897.73;110203;1265;19659;-64
2022/07/11 07:56:48;;;;;;;;;5.00;5.00;;;;;22.28;54.05;100895.12;110242;1265;22853;-64
2022/07/11 07:59:16;;;;;;;;;5.33;5.33;;;;;22.30;53.91;100895.75;110193;1264;22740;-65
2022/07/11 08:01:45;;;;;;;;;5.00;5.00;;;;;22.29;53.94;100893.37;110132;1264;21100;-65
2022/07/11 08:04:13;;;;;;;;;5.00;5.00;;;;;22.26;54.11;100894.70;110170;1264;18740;-64
2022/07/11 08:06:40;;;;;;;;;5.67;5.67;;;;;22.23;54.12;100885.70;110212;1265;18716;-64
2022/07/11 08:09:07;;;;;;;;;5.67;5.00;;;;;22.34;53.87;100885.95;110113;1265;19631;-68
2022/07/11 08:11:34;;;;;;;;;5.00;5.00;;;;;22.31;54.00;100889.11;110231;1265;18660;-67
2022/07/11 08:14:02;;;;;;;;;9.33;9.00;;;;;22.23;54.16;100888.77;110052;1264;18972;-65
2022/07/11 08:16:30;;;;;;;;;14.67;14.67;;;;;22.29;54.17;100881.90;110127;1264;19518;-64
2022/07/11 08:18:57;;;;;;;;;18.00;15.00;;;;;22.38;54.35;100877.52;110188;1265;18778;-67
2022/07/11 08:21:25;;;;;;;;;14.67;13.67;;;;;22.42;54.35;100873.98;110197;1265;18946;-66
2022/07/11 08:23:52;;;;;;;;;11.33;10.33;;;;;22.37;54.47;100872.75;110255;1265;19525;-65
2022/07/11 08:26:19;;;;;;;;;9.50;9.50;;;;;22.34;54.73;100874.75;110213;1264;18719;-64
2022/07/11 08:28:47;;;;;;;;;9.00;9.00;;;;;22.40;54.30;100883.31;110197;1264;18842;-65
2022/07/11 08:31:14;;;;;;;;;9.33;9.00;;;;;22.37;54.16;100889.14;110233;1264;19814;-64
2022/07/11 08:33:41;;;;;;;;;5.00;5.00;;;;;22.38;53.61;100885.52;110186;1265;18533;-65
2022/07/11 08:36:08;;;;;;;;;5.00;5.00;;;;;22.32;52.83;100887.70;110187;1264;19162;-65
2022/07/11 08:38:35;;;;;;;;;5.67;5.33;;;;;22.13;52.75;100889.22;110163;1264;19570;-63
2022/07/11 08:41:03;;;;;;;;;3.00;3.00;;;;;22.04;53.25;100883.19;110180;1264;18487;-62
2022/07/11 08:43:31;;;;;;;;;6.00;5.00;;;;;22.09;53.30;100884.91;110077;1264;18864;-64
2022/07/11 08:45:58;;;;;;;;;3.67;3.67;;;;;22.14;53.41;100892.56;110181;1264;19651;-61
2022/07/11 08:48:25;;;;;;;;;3.00;3.00;;;;;22.24;53.61;100891.10;110149;1264;18431;-66
2022/07/11 08:50:53;;;;;;;;;5.00;5.00;;;;;22.29;53.64;100897.95;110197;1264;23613;-62
2022/07/11 08:53:20;;;;;;;;;3.00;3.00;;;;;22.34;53.61;100902.81;110158;1265;19516;-66
2022/07/11 08:55:47;;;;;;;;;3.00;3.00;;;;;22.34;53.64;100906.77;110244;1264;22785;-64
2022/07/11 08:58:15;;;;;;;;;3.00;3.00;;;;;22.35;53.66;100899.87;110195;1265;19001;-64
2022/07/11 09:00:42;;;;;;;;;4.33;3.00;;;;;22.37;53.57;100897.67;110173;1264;19743;-64
2022/07/11 09:03:10;;;;;;;;;3.00;3.00;;;;;22.40;53.53;100899.48;110162;1265;18899;-67
2022/07/11 09:05:37;;;;;;;;;3.00;3.00;;;;;22.41;53.76;100896.67;110185;1264;19088;-62
2022/07/11 09:08:04;;;;;;;;;3.67;3.67;;;;;22.44;53.90;100895.94;110176;1264;24878;-64
2022/07/11 09:10:31;;;;;;;;;5.00;5.00;;;;;22.40;54.09;100895.11;110257;1264;18747;-63
2022/07/11 09:12:59;;;;;;;;;5.00;5.00;;;;;22.46;55.04;100892.90;110121;1265;18922;-65
2022/07/11 09:15:26;;;;;;;;;9.00;9.00;;;;;22.50;55.49;100896.13;110157;1264;19564;-67
2022/07/11 09:17:53;;;;;;;;;7.00;6.00;;;;;22.55;55.28;100896.83;110197;1264;19908;-64
2022/07/11 09:20:21;;;;;;;;;6.67;6.00;;;;;22.51;55.24;100905.95;110204;1265;18879;-64
2022/07/11 09:25:31;;;;;;;;;8.33;8.33;;;;;22.49;55.54;100899.92;109519;1270;19020;-64
2022/07/11 09:28:01;;;;;;;;;15.00;14.33;;;;;22.57;55.36;100896.16;109438;1270;18907;-65
2022/07/11 09:30:28;;;;;;;;;19.00;16.00;;;;;22.67;55.16;100892.99;109408;1270;19807;-66
2022/07/11 09:32:55;;;;;;;;;11.50;9.50;;;;;22.67;55.10;100893.15;109506;1270;18905;-64
2022/07/11 09:35:22;;;;;;;;;10.00;9.00;;;;;22.65;54.99;100893.76;109473;1270;20357;-64
2022/07/11 09:37:50;;;;;;;;;7.00;7.00;;;;;22.63;55.10;100899.20;109482;1270;21414;-63
2022/07/11 09:40:17;;;;;;;;;6.67;6.00;;;;;22.64;54.63;100893.96;109437;1270;18790;-62
2022/07/11 09:42:44;;;;;;;;;6.67;6.67;;;;;22.67;54.62;100897.30;109455;1270;18910;-65
2022/07/11 09:45:12;;;;;;;;;6.33;6.00;;;;;22.57;54.90;100894.48;109465;1270;19691;-66
2022/07/11 09:47:39;;;;;;;;;6.00;6.00;;;;;22.61;54.78;100892.90;109563;1270;18710;-64
2022/07/11 09:50:07;;;;;;;;;6.00;5.00;;;;;22.64;54.57;100887.30;109481;1270;18883;-63
2022/07/11 09:52:34;;;;;;;;;5.00;5.00;;;;;22.67;54.57;100886.40;109508;1271;19633;-61
2022/07/11 09:55:01;;;;;;;;;5.00;5.00;;;;;22.72;54.62;100888.58;109415;1270;18441;-64
2022/07/11 09:57:29;;;;;;;;;5.00;5.00;;;;;22.74;54.70;100880.48;109490;1270;18737;-64
2022/07/11 09:59:56;;;;;;;;;5.33;5.33;;;;;22.74;54.29;100878.46;109522;1270;19746;-64
2022/07/11 10:02:23;;;;;;;;;3.00;3.00;;;;;22.69;54.24;100876.55;109476;1268;18554;-63
2022/07/11 10:04:51;;;;;;;;;3.00;3.00;;;;;22.72;54.36;100874.20;110106;1265;19011;-63
2022/07/11 10:07:18;;;;;;;;;3.00;3.00;;;;;22.69;54.18;100879.61;110131;1264;21376;-64
2022/07/11 10:09:45;;;;;;;;;3.00;3.00;;;;;22.72;53.84;100879.80;110127;1264;18466;-64
2022/07/11 10:12:12;;;;;;;;;3.00;3.00;;;;;22.74;53.26;100882.46;110129;1264;18671;-66
2022/07/11 10:14:40;;;;;;;;;2.00;2.00;;;;;22.78;53.13;100888.16;110162;1265;24023;-66
2022/07/11 10:17:07;;;;;;;;;5.00;3.67;;;;;22.83;52.87;100884.26;110133;1265;22189;-64
2022/07/11 10:19:34;;;;;;;;;3.00;3.00;;;;;22.84;52.54;100887.94;110135;1264;19465;-64
2022/07/11 10:22:01;;;;;;;;;3.00;3.00;;;;;22.85;52.44;100885.91;110112;1265;19684;-63
2022/07/11 10:24:28;;;;;;;;;3.00;3.00;;;;;22.88;52.14;100884.60;110160;1264;19103;-64
2022/07/11 10:26:56;;;;;;;;;2.00;2.00;;;;;22.89;51.51;100884.39;110131;1265;19027;-65
2022/07/11 10:29:23;;;;;;;;;3.00;3.00;;;;;22.86;51.08;100884.06;110166;1264;22145;-60
2022/07/11 10:31:50;;;;;;;;;2.00;2.00;;;;;22.77;50.84;100881.17;110157;1264;22677;-64
2022/07/11 10:34:18;;;;;;;;;5.00;3.00;;;;;22.74;50.55;100878.27;110125;1264;21762;-64
2022/07/11 10:36:46;;;;;;;;;3.00;3.00;;;;;22.77;50.26;100875.77;110104;1265;20627;-64
2022/07/11 10:39:13;;;;;;;;;3.00;3.00;;;;;22.78;49.96;100877.23;110167;1264;18896;-65
2022/07/11 10:41:40;;;;;;;;;3.00;3.00;;;;;22.81;49.94;100877.27;110185;1265;19069;-65
2022/07/11 10:44:07;;;;;;;;;3.00;3.00;;;;;22.82;49.61;100874.17;110152;1264;19535;-63
2022/07/11 10:46:35;;;;;;;;;3.00;3.00;;;;;22.85;49.37;100874.78;110165;1264;22663;-64
2022/07/11 10:49:02;;;;;;;;;7.00;5.00;;;;;22.87;49.16;100875.73;110110;1264;18875;-63
2022/07/11 10:51:29;;;;;;;;;3.00;3.00;;;;;22.89;48.80;100874.21;110130;1264;19557;-63
2022/07/11 10:53:56;;;;;;;;;5.67;5.00;;;;;22.87;48.56;100872.27;110229;1265;20132;-65
2022/07/11 10:56:24;;;;;;;;;5.00;5.00;;;;;22.90;48.23;100873.29;110175;1264;19037;-64
2022/07/11 10:58:51;;;;;;;;;6.00;6.00;;;;;22.90;48.15;100866.98;110189;1264;21925;-66
2022/07/11 11:01:18;;;;;;;;;3.00;3.00;;;;;22.88;47.62;100870.73;110066;1265;18515;-65
2022/07/11 11:03:46;;;;;;;;;5.67;5.33;;;;;22.88;47.41;100877.48;110116;1265;18809;-63
2022/07/11 11:06:20;;;;;;;;;5.00;5.00;;;;;22.85;47.47;100884.92;110219;1264;19612;-65
2022/07/11 11:08:47;;;;;;;;;6.00;5.00;;;;;22.84;47.31;100887.55;110189;1264;19093;-64
2022/07/11 11:11:14;;;;;;;;;5.00;5.00;;;;;22.85;47.45;100888.58;110103;1265;18843;-65
2022/07/11 11:13:42;;;;;;;;;4.33;3.00;;;;;22.89;47.36;100885.59;110148;1264;21977;-64
2022/07/11 11:16:09;;;;;;;;;3.67;3.00;;;;;22.90;47.63;100883.46;110120;1265;22784;-62
2022/07/11 11:18:36;;;;;;;;;2.33;2.33;;;;;22.91;47.49;100878.55;110068;1264;18778;-65
2022/07/11 11:21:05;;;;;;;;;3.00;3.00;;;;;22.95;47.35;100888.08;110136;1265;19558;-62